createdAt,value
2022-09-15T00:00:33.783Z,3.33
2022-09-15T00:03:01.080Z,4.22
2022-09-15T00:05:28.320Z,3.85
2022-09-15T00:07:55.654Z,4.67
2022-09-15T00:10:22.861Z,3.33
2022-09-15T00:12:50.177Z,4.90
2022-09-15T00:15:17.693Z,4.30
2022-09-15T00:17:49.330Z,4.30
2022-09-15T00:20:17.827Z,3.70
2022-09-15T00:22:45.142Z,3.67
2022-09-15T00:25:12.556Z,2.50
2022-09-15T00:27:39.733Z,2.88
2022-09-15T00:30:07.825Z,4.03
2022-09-15T00:32:35.579Z,3.33
2022-09-15T00:35:02.940Z,4.28
2022-09-15T00:37:30.225Z,5.45
2022-09-15T00:39:57.624Z,5.82
2022-09-15T00:42:24.852Z,3.63
2022-09-15T00:45:02.775Z,3.90
2022-09-15T00:47:35.982Z,2.95
2022-09-15T00:50:11.804Z,3.78
2022-09-15T00:52:48.139Z,4.18
2022-09-15T00:55:26.616Z,3.72
2022-09-15T00:58:04.142Z,4.33
2022-09-15T01:00:31.394Z,4.78
2022-09-15T01:02:59.203Z,3.85
2022-09-15T01:05:30.238Z,4.25
2022-09-15T01:08:02.143Z,4.10
2022-09-15T01:10:30.437Z,3.20
2022-09-15T01:13:00.294Z,3.65
2022-09-15T01:15:46.224Z,3.30
2022-09-15T01:18:26.151Z,3.42
2022-09-15T01:20:59.654Z,2.92
2022-09-15T01:23:51.680Z,3.90
2022-09-15T01:26:55.644Z,2.65
2022-09-15T01:29:26.898Z,3.88
2022-09-15T01:32:39.019Z,4.22
2022-09-15T01:35:06.319Z,4.35
2022-09-15T01:37:38.400Z,3.30
2022-09-15T01:40:06.720Z,4.60
2022-09-15T01:42:34.051Z,3.58
2022-09-15T01:45:04.182Z,5.25
2022-09-15T01:47:31.383Z,5.10
2022-09-15T01:50:09.615Z,5.27
2022-09-15T01:52:36.896Z,4.70
2022-09-15T01:55:07.770Z,4.43
2022-09-15T01:57:35.087Z,5.00
2022-09-15T02:00:02.562Z,4.50
2022-09-15T02:02:48.218Z,3.87
2022-09-15T02:05:25.827Z,5.00
2022-09-15T02:08:05.763Z,4.13
2022-09-15T02:10:59.319Z,3.75
2022-09-15T02:13:42.876Z,3.75
2022-09-15T02:16:16.033Z,4.43
2022-09-15T02:18:45.368Z,4.80
2022-09-15T02:21:21.482Z,4.47
2022-09-15T02:23:51.182Z,6.43
2022-09-15T02:26:20.774Z,5.47
2022-09-15T02:28:47.937Z,6.40
2022-09-15T02:31:15.950Z,7.00
2022-09-15T02:34:03.430Z,6.07
2022-09-15T02:36:30.633Z,3.97
2022-09-15T02:39:03.868Z,5.07
2022-09-15T02:41:31.125Z,5.70
2022-09-15T02:43:58.271Z,4.80
2022-09-15T02:46:25.473Z,4.90
2022-09-15T02:48:53.397Z,5.10
2022-09-15T02:51:20.567Z,6.18
2022-09-15T02:53:47.771Z,4.87
2022-09-15T02:56:16.615Z,6.20
2022-09-15T02:58:43.898Z,5.45
2022-09-15T03:01:15.673Z,5.40
2022-09-15T03:03:43.627Z,5.45
2022-09-15T03:06:17.708Z,6.07
2022-09-15T03:08:48.618Z,5.65
2022-09-15T03:11:16.077Z,6.40
2022-09-15T03:13:43.343Z,5.88
2022-09-15T03:16:11.094Z,6.10
2022-09-15T03:18:38.490Z,5.90
2022-09-15T03:21:06.908Z,8.07
2022-09-15T03:23:34.129Z,7.65
2022-09-15T03:26:01.732Z,8.13
2022-09-15T03:28:28.995Z,6.80
2022-09-15T03:30:56.408Z,6.97
2022-09-15T03:33:24.443Z,7.47
2022-09-15T03:35:51.810Z,7.05
2022-09-15T03:38:19.058Z,7.20
2022-09-15T03:40:59.367Z,8.88
2022-09-15T03:43:27.209Z,7.23
2022-09-15T03:45:55.104Z,7.80
2022-09-15T03:48:23.591Z,7.70
2022-09-15T03:50:51.148Z,6.97
2022-09-15T03:53:18.556Z,6.30
2022-09-15T03:55:46.051Z,8.97
2022-09-15T03:58:13.426Z,6.70
2022-09-15T04:00:41.392Z,7.88
2022-09-15T04:03:08.755Z,7.53
2022-09-15T04:05:36.193Z,7.93
2022-09-15T04:08:03.459Z,8.40
2022-09-15T04:10:30.844Z,9.68
2022-09-15T04:12:58.073Z,9.35
2022-09-15T04:15:25.324Z,7.88
2022-09-15T04:17:52.547Z,7.85
2022-09-15T04:20:20.122Z,8.03
2022-09-15T04:22:47.403Z,6.90
2022-09-15T04:25:14.907Z,7.60
2022-09-15T04:27:42.194Z,7.13
2022-09-15T04:30:09.794Z,7.38
2022-09-15T04:32:37.204Z,11.17
2022-09-15T04:35:04.905Z,6.95
2022-09-15T04:37:32.310Z,7.68
2022-09-15T04:39:59.768Z,7.50
2022-09-15T04:42:27.691Z,10.25
2022-09-15T04:44:54.887Z,8.57
2022-09-15T04:47:22.195Z,9.40
2022-09-15T04:49:49.338Z,7.50
2022-09-15T04:52:16.740Z,8.73
2022-09-15T04:54:44.024Z,9.88
2022-09-15T04:57:11.440Z,8.77
2022-09-15T04:59:39.165Z,8.98
2022-09-15T05:02:06.556Z,9.45
2022-09-15T05:04:35.135Z,8.32
2022-09-15T05:07:03.025Z,8.30
2022-09-15T05:09:31.310Z,8.40
2022-09-15T05:11:58.893Z,8.85
2022-09-15T05:14:26.655Z,9.20
2022-09-15T05:16:57.678Z,9.43
2022-09-15T05:19:35.624Z,8.40
2022-09-15T05:22:03.372Z,10.93
2022-09-15T05:24:59.670Z,8.43
2022-09-15T05:27:29.371Z,11.50
2022-09-15T05:30:09.952Z,11.38
2022-09-15T05:32:44.461Z,9.15
2022-09-15T05:35:13.033Z,10.00
2022-09-15T05:37:40.686Z,11.13
2022-09-15T05:40:08.928Z,9.40
2022-09-15T05:42:37.051Z,9.48
2022-09-15T05:45:04.512Z,8.60
2022-09-15T05:47:31.835Z,10.73
2022-09-15T05:49:59.665Z,9.98
2022-09-15T05:52:27.270Z,8.75
2022-09-15T05:54:58.823Z,10.07
2022-09-15T05:57:27.220Z,11.25
2022-09-15T05:59:55.267Z,10.47
2022-09-15T06:02:22.880Z,9.05
2022-09-15T06:04:50.145Z,13.10
2022-09-15T06:07:32.698Z,11.25
2022-09-15T06:10:01.424Z,11.00
2022-09-15T06:12:28.671Z,8.50
2022-09-15T06:15:12.872Z,11.05
2022-09-15T06:17:43.221Z,10.88
2022-09-15T06:20:35.053Z,11.00
2022-09-15T06:23:03.378Z,11.02
2022-09-15T06:25:30.754Z,11.27
2022-09-15T06:27:58.175Z,11.23
2022-09-15T06:30:26.173Z,11.45
2022-09-15T06:32:57.174Z,9.77
2022-09-15T06:35:25.221Z,12.07
2022-09-15T06:37:52.651Z,12.43
2022-09-15T06:40:20.525Z,9.52
2022-09-15T06:42:48.362Z,11.38
2022-09-15T06:45:15.842Z,9.57
2022-09-15T06:47:43.479Z,10.80
2022-09-15T06:50:11.299Z,8.93
2022-09-15T06:52:38.888Z,8.55
2022-09-15T06:55:06.639Z,9.70
2022-09-15T06:57:34.356Z,12.65
2022-09-15T07:00:02.834Z,14.27
2022-09-15T07:02:31.610Z,9.13
2022-09-15T07:05:00.680Z,8.68
2022-09-15T07:07:30.163Z,9.98
2022-09-15T07:10:00.567Z,11.85
2022-09-15T07:12:32.656Z,8.63
2022-09-15T07:15:00.284Z,9.93
2022-09-15T07:17:30.904Z,11.60
2022-09-15T07:19:59.077Z,13.50
2022-09-15T07:22:27.203Z,9.82
2022-09-15T07:24:55.488Z,8.57
2022-09-15T07:27:43.991Z,8.97
2022-09-15T07:30:12.291Z,9.07
2022-09-15T07:32:40.957Z,10.45
2022-09-15T07:35:08.836Z,10.32
2022-09-15T07:37:36.260Z,8.57
2022-09-15T07:40:04.278Z,8.20
2022-09-15T07:42:35.391Z,9.80
2022-09-15T07:45:03.229Z,7.88
2022-09-15T07:47:31.923Z,9.85
2022-09-15T07:50:02.608Z,10.10
2022-09-15T07:52:31.127Z,12.37
2022-09-15T07:54:58.513Z,9.05
2022-09-15T07:57:38.901Z,8.82
2022-09-15T08:00:12.397Z,9.73
2022-09-15T08:05:26.642Z,10.03
2022-09-15T08:07:57.884Z,9.63
2022-09-15T08:10:27.603Z,7.47
2022-09-15T08:12:59.337Z,9.20
2022-09-15T08:15:27.562Z,7.53
2022-09-15T08:17:57.799Z,7.57
2022-09-15T08:20:32.987Z,9.27
2022-09-15T08:23:01.244Z,5.90
2022-09-15T08:25:30.198Z,6.35
2022-09-15T08:27:59.710Z,7.07
2022-09-15T08:30:28.210Z,6.30
2022-09-15T08:32:55.646Z,8.05
2022-09-15T08:35:23.628Z,8.40
2022-09-15T08:37:54.379Z,7.30
2022-09-15T08:40:26.219Z,8.27
2022-09-15T08:42:55.545Z,6.37
2022-09-15T08:45:25.095Z,6.22
2022-09-15T08:47:56.294Z,9.05
2022-09-15T08:50:31.335Z,7.65
2022-09-15T08:53:15.609Z,5.63
2022-09-15T08:55:56.033Z,7.37
2022-09-15T08:58:29.379Z,6.43
2022-09-15T09:01:17.396Z,6.78
2022-09-15T09:04:03.691Z,6.68
2022-09-15T09:06:45.484Z,5.60
2022-09-15T09:09:18.844Z,6.77
2022-09-15T09:12:17.555Z,6.78
2022-09-15T09:14:58.938Z,6.80
2022-09-15T09:17:58.247Z,6.10
2022-09-15T09:20:42.263Z,6.13
2022-09-15T09:23:13.386Z,5.97
2022-09-15T09:25:53.722Z,8.10
2022-09-15T09:28:30.058Z,9.30
2022-09-15T09:31:01.613Z,6.28
2022-09-15T09:33:34.934Z,7.15
2022-09-15T09:36:02.696Z,6.13
2022-09-15T09:38:38.500Z,7.05
2022-09-15T09:41:36.510Z,7.85
2022-09-15T09:44:06.064Z,7.63
2022-09-15T09:46:34.166Z,9.57
2022-09-15T09:49:21.218Z,6.77
2022-09-15T09:51:56.051Z,6.03
2022-09-15T09:54:27.509Z,6.47
2022-09-15T09:56:58.116Z,8.77
2022-09-15T09:59:39.954Z,6.57
2022-09-15T10:02:21.546Z,7.80
2022-09-15T10:05:21.061Z,8.20
2022-09-15T10:08:04.514Z,8.45
2022-09-15T10:10:50.121Z,6.32
2022-09-15T10:13:58.794Z,7.15
2022-09-15T10:16:49.852Z,8.70
2022-09-15T10:19:58.894Z,7.10
2022-09-15T10:22:47.143Z,8.20
2022-09-15T10:25:49.290Z,6.63
2022-09-15T10:28:27.248Z,9.85
2022-09-15T10:31:40.832Z,6.77
2022-09-15T10:34:29.855Z,8.43
2022-09-15T10:37:56.360Z,9.65
2022-09-15T10:40:44.909Z,9.85
2022-09-15T10:43:42.548Z,8.23
2022-09-15T10:46:21.305Z,11.53
2022-09-15T10:49:12.761Z,7.70
2022-09-15T10:51:59.279Z,11.15
2022-09-15T10:54:40.874Z,9.57
2022-09-15T10:57:40.139Z,8.38
2022-09-15T11:00:16.464Z,9.60
2022-09-15T11:03:17.923Z,8.02
2022-09-15T11:06:35.847Z,7.18
2022-09-15T11:09:19.426Z,11.43
2022-09-15T11:12:00.235Z,9.82
2022-09-15T11:14:47.362Z,7.17
2022-09-15T11:17:36.163Z,7.65
2022-09-15T11:20:12.883Z,8.00
2022-09-15T11:22:49.730Z,8.20
2022-09-15T11:25:25.211Z,12.73
2022-09-15T11:27:57.564Z,5.67
2022-09-15T11:30:26.954Z,10.25
2022-09-15T11:33:19.377Z,7.32
2022-09-15T11:36:03.640Z,6.68
2022-09-15T11:38:48.310Z,8.30
2022-09-15T11:41:38.747Z,6.33
2022-09-15T11:44:34.134Z,8.90
2022-09-15T11:47:05.053Z,5.88
2022-09-15T11:49:49.115Z,9.57
2022-09-15T11:52:35.790Z,6.43
2022-09-15T11:55:22.530Z,7.17
2022-09-15T11:58:21.057Z,9.45
2022-09-15T12:01:07.401Z,6.78
2022-09-15T12:03:39.481Z,6.57
2022-09-15T12:06:10.163Z,10.18
2022-09-15T12:08:41.262Z,10.97
2022-09-15T12:11:12.352Z,11.15
2022-09-15T12:13:40.860Z,13.13
2022-09-15T12:16:08.372Z,7.53
2022-09-15T12:18:44.949Z,10.23
2022-09-15T12:21:22.971Z,13.33
2022-09-15T12:24:08.997Z,7.68
2022-09-15T15:07:05.222Z,5.22
2022-09-15T15:09:38.331Z,5.05
2022-09-15T15:12:19.464Z,6.80
2022-09-15T15:14:47.558Z,5.68
2022-09-15T15:17:44.081Z,6.20
2022-09-15T15:20:14.640Z,8.80
2022-09-15T15:22:44.802Z,7.88
2022-09-15T15:25:31.385Z,6.78
2022-09-15T15:28:00.761Z,5.38
2022-09-15T15:30:32.769Z,6.20
2022-09-15T15:33:05.753Z,6.30
2022-09-15T15:35:41.179Z,5.90
2022-09-15T15:38:11.998Z,6.35
2022-09-15T15:40:40.965Z,7.40
2022-09-15T15:43:26.483Z,5.83
2022-09-15T15:46:02.009Z,6.38
2022-09-15T15:48:38.053Z,8.80
2022-09-15T15:51:16.460Z,5.93
2022-09-15T15:53:44.986Z,8.57
2022-09-15T15:56:20.691Z,7.27
2022-09-15T15:58:57.211Z,5.03
2022-09-15T16:01:31.547Z,5.90
2022-09-15T16:04:02.200Z,7.05
2022-09-15T16:06:40.992Z,5.20
2022-09-15T16:09:12.486Z,5.17
2022-09-15T16:11:53.303Z,5.68
2022-09-15T16:14:27.968Z,7.03
2022-09-15T16:17:11.696Z,6.53
2022-09-15T16:19:54.195Z,6.90
2022-09-15T16:22:27.959Z,6.17
2022-09-15T16:25:01.789Z,6.25
2022-09-15T16:27:35.357Z,8.02
2022-09-15T16:30:14.164Z,7.93
2022-09-15T16:32:44.722Z,8.73
2022-09-15T16:35:51.487Z,5.53
2022-09-15T16:38:32.196Z,10.35
2022-09-15T16:41:16.597Z,7.70
2022-09-15T16:43:56.836Z,5.10
2022-09-15T16:46:32.685Z,4.95
2022-09-15T16:49:12.640Z,6.77
2022-09-15T16:51:49.449Z,6.80
2022-09-15T16:54:25.194Z,6.18
2022-09-15T16:57:01.003Z,5.05
2022-09-15T16:59:40.030Z,9.73
2022-09-15T17:02:19.612Z,8.73
2022-09-15T17:04:55.533Z,7.05
2022-09-15T17:07:32.539Z,6.18
2022-09-15T17:10:18.804Z,8.43
2022-09-15T17:12:53.497Z,5.75
2022-09-15T17:15:33.738Z,6.67
2022-09-15T17:18:07.523Z,6.93
2022-09-15T17:20:48.690Z,9.15
2022-09-15T17:23:26.510Z,5.30
2022-09-15T17:26:24.626Z,5.82
2022-09-15T17:29:06.220Z,6.17
2022-09-15T17:31:38.468Z,6.38
2022-09-15T17:34:18.259Z,6.47
2022-09-15T17:36:57.555Z,8.07
2022-09-15T17:39:34.354Z,5.90
2022-09-15T17:42:13.210Z,4.37
2022-09-15T17:45:01.699Z,5.85
2022-09-15T17:47:49.742Z,6.32
2022-09-15T17:50:26.093Z,8.20
2022-09-15T17:53:02.213Z,6.53
2022-09-15T17:55:34.667Z,6.60
2022-09-15T17:58:15.354Z,4.55
2022-09-15T18:04:14.283Z,7.35
2022-09-15T18:06:58.037Z,5.00
2022-09-15T18:09:39.064Z,7.33
2022-09-15T18:12:22.835Z,8.02
2022-09-15T18:15:15.694Z,4.68
2022-09-15T18:17:43.866Z,4.25
2022-09-15T18:23:46.371Z,4.90
2022-09-15T18:26:16.889Z,3.17
2022-09-15T18:28:50.182Z,4.28
2022-09-15T18:31:32.314Z,6.28
2022-09-15T18:34:04.257Z,4.40
2022-09-15T18:36:35.401Z,5.40
2022-09-15T18:39:12.229Z,4.38
2022-09-15T18:41:44.477Z,5.05
2022-09-15T18:44:20.086Z,4.10
2022-09-15T18:46:55.337Z,6.03
2022-09-15T18:49:35.653Z,5.23
2022-09-15T18:52:07.258Z,6.80
2022-09-15T18:54:43.415Z,5.10
2022-09-15T18:57:29.786Z,4.90
2022-09-15T19:00:02.189Z,3.05
2022-09-15T19:02:32.899Z,4.13
2022-09-15T19:05:13.593Z,4.03
2022-09-15T19:07:46.243Z,6.95
2022-09-15T19:10:20.569Z,4.28
2022-09-15T19:12:58.120Z,5.43
2022-09-15T19:15:30.248Z,6.33
2022-09-15T19:18:02.230Z,7.00
2022-09-15T19:20:45.362Z,7.28
2022-09-15T19:23:16.159Z,9.88
2022-09-15T19:25:49.259Z,5.93
2022-09-15T19:28:21.613Z,6.93
2022-09-15T19:30:58.300Z,4.95
2022-09-15T19:33:34.646Z,6.22
2022-09-15T19:36:29.071Z,4.90
2022-09-15T19:39:15.033Z,6.03
2022-09-15T19:41:43.004Z,6.97
2022-09-15T19:44:16.320Z,6.28
2022-09-15T19:46:50.515Z,5.22
2022-09-15T19:49:22.122Z,5.72
2022-09-15T19:52:00.900Z,6.22
2022-09-15T19:54:32.327Z,5.60
2022-09-15T19:57:05.068Z,6.30
2022-09-15T19:59:36.784Z,5.30
2022-09-15T20:02:12.279Z,7.80
2022-09-15T20:04:45.610Z,6.97
2022-09-15T20:07:21.542Z,5.60
2022-09-15T20:09:55.368Z,5.95
2022-09-15T20:12:31.345Z,5.50
2022-09-15T20:15:07.192Z,7.60
2022-09-15T20:17:43.658Z,6.05
2022-09-15T20:20:17.223Z,6.67
2022-09-15T20:22:48.381Z,6.05
2022-09-15T20:25:21.675Z,4.70
2022-09-15T20:27:56.005Z,6.03
2022-09-15T21:04:03.506Z,6.13
2022-09-15T21:06:38.117Z,7.68
2022-09-15T21:09:10.938Z,4.40
2022-09-15T21:11:43.674Z,6.53
2022-09-15T21:14:33.256Z,5.82
2022-09-15T21:17:11.572Z,7.18
2022-09-15T21:19:46.517Z,7.47
2022-09-15T21:22:16.937Z,6.15
2022-09-15T21:24:48.936Z,6.00
2022-09-15T21:27:30.196Z,7.45
2022-09-15T21:30:08.769Z,6.95
2022-09-15T21:32:43.056Z,6.25
2022-09-15T21:35:22.754Z,7.50
2022-09-15T21:38:06.687Z,7.37
2022-09-15T21:40:50.119Z,8.93
2022-09-15T21:43:21.934Z,5.18
2022-09-15T21:45:58.715Z,5.90
2022-09-15T21:48:30.123Z,7.78
2022-09-15T21:51:03.331Z,5.00
2022-09-15T21:53:36.639Z,6.78
2022-09-15T21:56:15.278Z,7.80
2022-09-15T21:58:58.000Z,6.40
2022-09-15T22:01:31.642Z,6.15
2022-09-15T22:04:07.669Z,12.13
2022-09-15T22:06:44.052Z,5.07
2022-09-15T22:09:26.004Z,8.43
2022-09-15T22:12:01.542Z,5.88
2022-09-15T22:14:29.437Z,7.00
2022-09-15T22:17:07.001Z,7.33
2022-09-15T22:19:45.872Z,9.18
2022-09-15T22:22:25.885Z,6.55
2022-09-15T22:25:21.160Z,7.13
2022-09-15T22:28:09.541Z,10.20
2022-09-15T22:30:45.425Z,5.97
2022-09-15T22:33:21.062Z,7.65
2022-09-15T22:35:56.008Z,9.43
2022-09-15T22:38:32.154Z,7.53
2022-09-15T22:41:18.265Z,8.52
2022-09-15T22:43:52.073Z,9.30
2022-09-15T22:46:25.034Z,8.18
2022-09-15T22:49:00.249Z,5.60
2022-09-15T22:51:36.843Z,11.63
2022-09-15T22:54:10.180Z,8.05
2022-09-15T22:56:41.435Z,9.67
2022-09-15T22:59:17.323Z,10.55
2022-09-15T23:02:03.223Z,9.95
2022-09-15T23:04:37.875Z,10.45
2022-09-15T23:07:11.615Z,5.22
2022-09-15T23:09:55.860Z,9.60
2022-09-15T23:12:32.658Z,8.30
2022-09-15T23:15:05.316Z,7.40
2022-09-15T23:17:39.258Z,10.18
2022-09-15T23:20:14.663Z,8.70
2022-09-15T23:22:47.910Z,5.50
2022-09-15T23:25:20.963Z,8.13
2022-09-15T23:27:55.723Z,6.75
2022-09-15T23:30:29.079Z,8.18
2022-09-15T23:33:09.800Z,8.88
2022-09-15T23:35:47.656Z,9.20
2022-09-15T23:38:23.353Z,8.75
2022-09-15T23:41:04.420Z,6.47
2022-09-15T23:43:40.612Z,7.10
2022-09-15T23:46:17.721Z,7.03
2022-09-15T23:48:49.895Z,7.27
2022-09-15T23:51:24.361Z,7.93
2022-09-15T23:53:59.106Z,10.20
2022-09-15T23:56:31.702Z,8.93
2022-09-15T23:59:03.580Z,10.45
